< < Back
Terminal Aerodrome Forecast


Current Version              Previous Versions:   1  2  3  4  5  6  7  8  9  

Terminal Aerodrome Forecast

693
FTUS42 KFFC 040756 AAA
TAFATL
TAF AMD
KATL 040756Z 0408/0512 12005KT 1/4SM FG VV002
      TEMPO 0408/0412 1/2SM FG BKN004
     FM041200 20006KT 1/2SM FG BKN007
     FM041300 22008KT P6SM SCT004 BKN012
     FM041600 22010KT P6SM BKN012
     FM042000 22010G15KT P6SM SCT012 BKN025
     FM050000 20008KT P6SM BKN012
     FM050600 20007KT 2SM -RA OVC008=

Latest METAR

738
SAUS70 KWBC 041700
MTRATL
METAR KATL 041652Z 23013G21KT 10SM BKN014 BKN019 BKN250 19/16 A3004 RMK
AO2 SLP171 T01940156


USA.gov is the U.S. government's official web portal to all federal, state and local government web resources and services.